This is the latest recevied weather packets stored in our database for station/object KD5GAT-51. If no packets are shown the sender has not sent any weather packets the latest 10 day(s).
| Time | Temp. | Humidity | Pressure | Rain* | Wind** | Luminosity | Snow |
|---|---|---|---|---|---|---|---|
| 1788387194 | 42.22° C | 30% | 1012.9 hPa | - | - | - | - |
| 1788386294 | 42.22° C | 30% | 1013.2 hPa | - | - | - | - |
| 1788385393 | 42.78° C | 29% | 1013.2 hPa | - | - | - | - |
| 1788384493 | 42.22° C | 30% | 1013.4 hPa | - | - | - | - |
| 1788383593 | 42.78° C | 29% | 1013.5 hPa | - | - | - | - |
| 1788382693 | 42.78° C | 29% | 1013.7 hPa | - | - | - | - |
| 1788381793 | 42.78° C | 30% | 1014 hPa | - | - | - | - |
| 1788380892 | 42.78° C | 31% | 1014.2 hPa | - | - | - | - |
| 1788379992 | 42.78° C | 32% | 1014.5 hPa | - | - | - | - |
| 1788379092 | 42.22° C | 34% | 1014.9 hPa | - | - | - | - |
| 1788378192 | 41.67° C | 35% | 1015.2 hPa | - | - | - | - |
| 1788377292 | 42.22° C | 35% | 1015.5 hPa | - | - | - | - |
| 1788376391 | 41.67° C | 36% | 1015.6 hPa | - | - | - | - |
| 1788336792 | 26.11° C | 100% | 1017.3 hPa | - | - | - | - |
| 1788335891 | 26.11° C | 100% | 1017.3 hPa | - | - | - | - |
| 1788334991 | 26.67° C | 100% | 1017.2 hPa | - | - | - | - |
| 1788334091 | 26.67° C | 100% | 1017.2 hPa | - | - | - | - |
| 1788333191 | 27.22° C | 100% | 1017.1 hPa | - | - | - | - |
| 1788332307 | 27.22° C | 100% | 1017.2 hPa | - | - | - | - |
| 1788331399 | 27.78° C | 100% | 1017.3 hPa | - | - | - | - |
| 1788330498 | 27.78° C | 100% | 1017.2 hPa | - | - | - | - |
| 1788329598 | 27.78° C | 100% | 1017 hPa | - | - | - | - |
| 1788328698 | 28.33° C | 100% | 1016.9 hPa | - | - | - | - |
| 1788327798 | 28.89° C | 100% | 1016.8 hPa | - | - | - | - |
| 1788326898 | 28.89° C | 100% | 1016.9 hPa | - | - | - | - |
* Rain since midnight (hover to see other rain measurements)
** Current wind speed in m/s (hover to see current wind gust speed)